GUCY

Conakry Airport

Conakry, Guinea
METAR GUCY 110300Z 00000KT 4000 HZ 27/25 Q1013 NOSIG
Observed Flight Rules
Dec-11 @ 03:00 UTC (2 hours ago)
Visibility Conditions
4,007 meters
  • Haze
Temperatures Readings
Current 27°C / 81°F
Dewpoint 25°C / 77°F
Humidity 89%
Altimeter 29.91" Hg
Pressure 1013 hPa
Elevation 26
METAR GUCY 110300Z 00000KT 4000 HZ 27/25 Q1013 NOSIG
Observed Flight Rules
Dec-11 @ 03:00 UTC
(2 hours ago)
Conditions
  • Haze
Temperature Dewpoint
27°C / 81°F 25°C / 77°F
Humidity Altimeter Pressure
89% 29.91" Hg 1013 hPa